Time;durP1;ratioP1;P1;durP2;ratioP2;P2;SDS_P1;SDS_P2;PMS_P1;PMS_P2;Temp;Humidity;BMP_temperature;BMP_pressure;BME280_temperature;BME280_humidity;BME280_pressure;Samples;Min_cycle;Max_cycle;Signal;HPM_P1;HPM_P2
2021/04/04 00:01:17;;;;;;;20.00;9.88;;;;;;;1.93;69.28;98901.91;4983029;28;20030;-74
2021/04/04 00:03:42;;;;;;;17.08;9.05;;;;;;;1.93;70.29;98896.50;4982746;28;20030;-74
2021/04/04 00:06:08;;;;;;;18.63;9.98;;;;;;;1.92;69.62;98899.44;4974221;28;20042;-74
2021/04/04 00:08:33;;;;;;;16.90;9.60;;;;;;;1.93;69.90;98898.38;4973557;28;20030;-75
2021/04/04 00:10:58;;;;;;;14.20;8.32;;;;;;;1.97;69.74;98896.88;4988477;28;20500;-75
2021/04/04 00:13:24;;;;;;;13.70;8.15;;;;;;;1.95;69.48;98898.16;4989076;28;20064;-74
2021/04/04 00:15:49;;;;;;;20.00;9.20;;;;;;;1.97;69.42;98894.16;5005621;28;20546;-74
2021/04/04 00:18:14;;;;;;;17.50;9.20;;;;;;;1.95;69.84;98890.84;5007432;28;20432;-74
2021/04/04 00:20:40;;;;;;;18.75;9.50;;;;;;;1.87;69.96;98881.19;5006809;28;20026;-75
2021/04/04 00:23:05;;;;;;;16.75;9.48;;;;;;;1.84;69.25;98888.91;5006597;28;20104;-74
2021/04/04 00:25:31;;;;;;;16.50;9.30;;;;;;;1.76;69.15;98888.22;5018725;28;20373;-75
2021/04/04 00:27:57;;;;;;;15.52;8.57;;;;;;;1.81;69.52;98889.41;4990851;28;20026;-73
2021/04/04 00:30:23;;;;;;;13.60;7.28;;;;;;;1.84;69.30;98895.16;5012035;28;20083;-73
2021/04/04 00:32:49;;;;;;;15.27;8.25;;;;;;;1.82;69.88;98893.75;5011045;28;20030;-74
2021/04/04 00:35:18;;;;;;;17.80;9.45;;;;;;;1.83;69.68;98895.41;5022258;28;20375;-74
2021/04/04 00:37:45;;;;;;;20.00;10.75;;;;;;;1.84;69.69;98891.63;4992691;28;20095;-76
2021/04/04 00:40:12;;;;;;;18.98;9.63;;;;;;;1.83;69.72;98885.41;5009870;28;20053;-76
2021/04/04 00:42:38;;;;;;;17.15;8.82;;;;;;;1.83;69.43;98885.41;5009489;28;20105;-76
2021/04/04 00:45:13;;;;;;;16.63;8.93;;;;;;;1.84;69.46;98888.91;5009728;28;20106;-76
2021/04/04 00:47:39;;;;;;;15.55;8.85;;;;;;;1.85;68.97;98895.97;4991850;28;20089;-76
2021/04/04 00:50:06;;;;;;;18.60;9.65;;;;;;;1.88;69.44;98887.41;5009798;28;20427;-76
2021/04/04 00:52:32;;;;;;;16.35;8.93;;;;;;;1.88;69.47;98890.13;5011581;28;20477;-76
2021/04/04 00:54:57;;;;;;;17.33;9.63;;;;;;;1.85;69.19;98899.53;5009331;28;20037;-76
2021/04/04 00:57:23;;;;;;;17.67;9.70;;;;;;;1.83;69.44;98895.41;5009499;28;20512;-76
2021/04/04 00:59:48;;;;;;;13.75;7.97;;;;;;;1.86;69.54;98900.34;4991830;28;20541;-76
2021/04/04 01:02:16;;;;;;;16.95;8.82;;;;;;;1.87;69.75;98902.00;5009408;28;20458;-76
2021/04/04 01:04:43;;;;;;;14.27;8.95;;;;;;;1.85;69.78;98904.94;5009313;28;20046;-76
2021/04/04 01:07:08;;;;;;;16.25;9.23;;;;;;;1.88;70.01;98907.19;5009443;28;20512;-76
2021/04/04 01:09:33;;;;;;;16.08;9.43;;;;;;;1.92;70.22;98902.97;5011885;28;20054;-76
2021/04/04 01:12:09;;;;;;;15.48;8.73;;;;;;;1.90;70.84;98907.78;5010800;28;20018;-76
2021/04/04 01:14:38;;;;;;;14.68;8.57;;;;;;;1.87;69.54;98905.53;5011987;28;20022;-76
2021/04/04 01:17:05;;;;;;;13.65;7.60;;;;;;;1.80;70.63;98901.28;5030372;28;20079;-76
2021/04/04 01:19:52;;;;;;;15.15;7.50;;;;;;;1.76;70.75;98906.28;5010734;28;20029;-76
2021/04/04 01:22:45;;;;;;;15.20;8.02;;;;;;;1.75;70.21;98904.63;4992366;28;20038;-76
2021/04/04 01:25:26;;;;;;;16.70;8.85;;;;;;;1.78;70.55;98905.03;4991563;28;20025;-76
2021/04/04 01:28:02;;;;;;;14.30;8.07;;;;;;;1.75;70.14;98905.47;5008913;28;20030;-76
2021/04/04 01:30:31;;;;;;;15.25;8.25;;;;;;;1.79;70.11;98905.84;5008725;28;20053;-76
2021/04/04 01:32:58;;;;;;;14.40;7.85;;;;;;;1.82;70.31;98916.22;5010147;28;20091;-75
2021/04/04 01:35:28;;;;;;;15.80;9.05;;;;;;;1.75;70.87;98924.41;5020409;28;20029;-76
2021/04/04 01:37:58;;;;;;;;;;;;;;;1.74;70.23;98919.22;5007398;28;20026;-76
2021/04/04 01:40:24;;;;;;;15.83;8.57;;;;;;;1.70;70.73;98921.56;5007256;28;19920;-76
2021/04/04 01:42:53;;;;;;;15.75;8.10;;;;;;;1.67;70.90;98929.28;5023467;28;20037;-75
2021/04/04 01:45:20;;;;;;;15.50;8.85;;;;;;;1.68;70.82;98929.06;5009934;28;20772;-76
2021/04/04 01:47:46;;;;;;;17.63;9.05;;;;;;;1.69;70.39;98922.59;5015925;28;20031;-75
2021/04/04 01:50:13;;;;;;;16.27;8.70;;;;;;;1.72;70.48;98924.03;5018712;28;20029;-75
2021/04/04 01:52:39;;;;;;;14.55;8.48;;;;;;;1.71;70.72;98916.97;5009893;28;20022;-76
2021/04/04 01:55:07;;;;;;;17.00;8.55;;;;;;;1.73;70.83;98917.56;5010250;28;20017;-75
2021/04/04 01:57:33;;;;;;;17.25;9.18;;;;;;;1.71;70.41;98916.97;5009859;28;20058;-76
2021/04/04 02:00:01;;;;;;;16.83;9.20;;;;;;;1.71;70.53;98917.81;5009729;28;20021;-76
2021/04/04 02:02:28;;;;;;;17.63;9.82;;;;;;;1.71;71.36;98928.63;5013394;28;20053;-76
2021/04/04 02:04:53;;;;;;;20.02;9.30;;;;;;;1.68;70.82;98917.41;5016825;28;20544;-75
2021/04/04 02:07:19;;;;;;;16.85;8.98;;;;;;;1.67;70.56;98927.41;5012395;28;20038;-76
2021/04/04 02:09:47;;;;;;;17.30;8.80;;;;;;;1.66;70.61;98927.63;5017960;28;20023;-76
2021/04/04 02:12:14;;;;;;;17.30;8.98;;;;;;;1.64;70.72;98925.97;5009564;28;20040;-76
2021/04/04 02:14:42;;;;;;;15.85;8.95;;;;;;;1.58;70.77;98932.31;5024845;28;20026;-76
2021/04/04 02:17:08;;;;;;;15.73;8.68;;;;;;;1.59;70.53;98927.72;5009279;28;20053;-76
2021/04/04 02:19:34;;;;;;;14.77;9.18;;;;;;;1.59;70.26;98923.16;5009407;28;20035;-76
2021/04/04 02:22:00;;;;;;;17.58;9.68;;;;;;;1.58;70.74;98934.19;5009487;28;20022;-75
2021/04/04 02:24:28;;;;;;;17.55;9.48;;;;;;;1.60;70.52;98932.91;5009459;28;20022;-76
2021/04/04 02:26:55;;;;;;;19.08;10.85;;;;;;;1.65;70.50;98934.94;5009606;28;20037;-76
2021/04/04 02:29:21;;;;;;;26.65;10.38;;;;;;;1.62;71.02;98938.09;5013179;28;20030;-76
2021/04/04 02:31:54;;;;;;;35.63;12.60;;;;;;;1.60;70.81;98932.91;5009361;28;20384;-75
2021/04/04 02:34:24;;;;;;;38.55;13.70;;;;;;;1.59;70.58;98935.81;5009518;28;20018;-76
2021/04/04 02:36:50;;;;;;;29.63;11.80;;;;;;;1.57;70.66;98935.22;5009317;28;20056;-75
2021/04/04 02:39:26;;;;;;;23.08;10.07;;;;;;;1.55;71.36;98935.47;5009471;28;20045;-76
2021/04/04 02:41:56;;;;;;;21.38;10.73;;;;;;;1.54;70.82;98936.50;5026137;28;20083;-76
2021/04/04 02:44:26;;;;;;;20.48;10.85;;;;;;;1.52;70.73;98930.50;5010428;28;20026;-75
2021/04/04 02:46:55;;;;;;;18.33;11.00;;;;;;;1.54;70.66;98935.66;5010516;28;20026;-75
2021/04/04 02:49:27;;;;;;;21.60;11.90;;;;;;;1.52;70.72;98932.38;5064656;28;20027;-75
2021/04/04 02:51:54;;;;;;;23.30;11.45;;;;;;;1.50;70.99;98932.59;5113144;28;20741;-75
2021/04/04 02:54:24;;;;;;;21.23;11.48;;;;;;;1.52;71.29;98935.06;5113386;28;20480;-75
2021/04/04 02:56:49;;;;;;;;;;;;;;;1.52;71.13;98941.31;5112974;28;20024;-75
2021/04/04 02:59:26;;;;;;;20.60;11.77;;;;;;;1.54;70.80;98933.81;5105905;28;19924;-75
2021/04/04 03:01:54;;;;;;;23.52;12.23;;;;;;;1.53;71.12;98942.13;5106130;28;20086;-75
2021/04/04 03:04:24;;;;;;;23.17;12.13;;;;;;;1.51;70.83;98939.66;5111665;28;20050;-75
2021/04/04 03:06:51;;;;;;;24.38;13.35;;;;;;;1.47;70.82;98936.56;5078894;28;20031;-75
2021/04/04 03:09:19;;;;;;;20.48;10.90;;;;;;;1.49;70.71;98947.19;5113217;28;20024;-75
2021/04/04 03:11:46;;;;;;;22.13;12.13;;;;;;;1.46;70.82;98945.72;5112562;28;20027;-75
2021/04/04 03:14:12;;;;;;;24.13;11.85;;;;;;;1.43;70.79;98943.47;5113242;28;20031;-75
2021/04/04 03:16:38;;;;;;;25.23;13.15;;;;;;;1.41;70.94;98940.19;5095450;28;20393;-75
2021/04/04 03:19:05;;;;;;;23.67;12.43;;;;;;;1.40;71.13;98935.84;5010059;28;20100;-75
2021/04/04 03:21:33;;;;;;;22.40;12.70;;;;;;;1.36;70.94;98944.59;5010064;28;20026;-75
2021/04/04 03:23:59;;;;;;;27.27;12.60;;;;;;;1.36;71.17;98953.56;4992397;28;20037;-75
2021/04/04 03:26:26;;;;;;;28.73;14.23;;;;;;;1.31;71.50;98945.28;5041649;28;20030;-75
2021/04/04 03:28:52;;;;;;;31.08;15.27;;;;;;;1.31;71.59;98943.41;5052829;28;20042;-75
2021/04/04 03:31:18;;;;;;;31.83;14.15;;;;;;;1.29;71.40;98945.50;5009823;28;20040;-75
2021/04/04 03:33:44;;;;;;;26.83;12.05;;;;;;;1.31;71.35;98948.00;5009795;28;20034;-75
2021/04/04 03:36:17;;;;;;;28.17;11.68;;;;;;;1.31;71.41;98946.09;5017631;28;20024;-75
2021/04/04 03:38:44;;;;;;;29.85;13.45;;;;;;;1.27;71.02;98949.47;5009830;28;20534;-75
2021/04/04 03:41:11;;;;;;;23.55;11.75;;;;;;;1.25;71.37;98951.56;5010293;28;20034;-75
2021/04/04 03:43:37;;;;;;;28.30;14.45;;;;;;;1.24;71.31;98948.03;4992249;28;20032;-76
2021/04/04 03:46:06;;;;;;;28.67;13.10;;;;;;;1.17;71.74;98945.41;5084635;28;20040;-76
2021/04/04 03:48:33;;;;;;;27.48;12.52;;;;;;;1.12;71.27;98945.25;5105495;28;20055;-75
2021/04/04 03:51:03;;;;;;;29.92;13.63;;;;;;;1.05;71.19;98960.69;5112749;28;20692;-75
2021/04/04 03:53:29;;;;;;;26.60;13.38;;;;;;;1.03;71.38;98957.38;5093325;28;20098;-76
2021/04/04 03:56:03;;;;;;;27.60;13.07;;;;;;;1.03;71.46;98962.78;5112670;28;20023;-75
2021/04/04 03:58:31;;;;;;;25.63;12.35;;;;;;;0.99;71.77;98956.19;5071887;28;20075;-76
2021/04/04 04:00:59;;;;;;;26.73;13.15;;;;;;;0.92;71.92;98953.53;5016284;28;20045;-75
2021/04/04 04:03:25;;;;;;;24.67;12.45;;;;;;;0.87;71.52;98950.66;5016359;28;20030;-76
2021/04/04 04:05:52;;;;;;;22.55;12.50;;;;;;;0.87;71.75;98956.91;5011735;28;20106;-76
2021/04/04 04:08:19;;;;;;;28.35;13.52;;;;;;;0.87;71.37;98956.91;5012778;28;20034;-75
2021/04/04 04:10:46;;;;;;;28.05;13.10;;;;;;;0.88;71.99;98961.25;5012874;28;20022;-75
2021/04/04 04:13:13;;;;;;;27.33;13.07;;;;;;;0.86;71.42;98966.06;5094630;28;20530;-75
2021/04/04 04:15:39;;;;;;;32.20;14.93;;;;;;;0.83;71.27;98965.66;5113738;28;20034;-75
2021/04/04 04:18:06;;;;;;;26.20;13.60;;;;;;;0.83;71.46;98969.19;5013258;28;20026;-75
2021/04/04 04:20:32;;;;;;;31.23;14.35;;;;;;;0.82;71.55;98964.84;5012680;28;20541;-75
2021/04/04 04:23:01;;;;;;;33.85;15.80;;;;;;;0.83;71.37;98966.50;5019579;28;20066;-75
2021/04/04 04:25:28;;;;;;;30.67;14.32;;;;;;;0.83;71.62;98973.75;5042759;28;20489;-75
2021/04/04 04:27:54;;;;;;;33.78;15.40;;;;;;;0.83;71.22;98971.03;5041274;28;20028;-75
2021/04/04 04:30:20;;;;;;;30.73;14.95;;;;;;;0.83;71.54;98963.78;5097040;28;20038;-75
2021/04/04 04:32:49;;;;;;;49.53;20.00;;;;;;;0.79;71.29;98965.28;5108582;28;20106;-76
2021/04/04 04:35:18;;;;;;;53.00;20.95;;;;;;;0.76;70.85;98964.91;5116015;28;20464;-75
2021/04/04 04:37:45;;;;;;;55.90;22.13;;;;;;;0.75;70.80;98969.44;5079150;28;20026;-75
2021/04/04 04:40:11;;;;;;;49.17;22.88;;;;;;;0.72;71.13;98961.78;5017459;28;20041;-75
2021/04/04 04:42:40;;;;;;;39.60;18.45;;;;;;;0.68;71.19;98965.97;5011435;28;20034;-75
2021/04/04 04:45:11;;;;;;;36.67;16.92;;;;;;;0.65;70.50;98971.81;5021291;28;20036;-75
2021/04/04 04:47:37;;;;;;;35.25;17.70;;;;;;;0.56;70.83;98974.78;5115812;28;20032;-75
2021/04/04 04:50:03;;;;;;;38.30;18.10;;;;;;;0.49;70.78;98968.59;5109809;28;20471;-75
2021/04/04 04:52:29;;;;;;;36.92;17.38;;;;;;;0.42;70.90;98965.94;5012141;28;20026;-75
2021/04/04 04:54:54;;;;;;;31.08;15.13;;;;;;;0.37;71.06;98967.63;5012786;28;20041;-75
2021/04/04 04:57:20;;;;;;;28.80;15.45;;;;;;;0.36;71.21;98971.38;5012180;28;20037;-75
2021/04/04 04:59:47;;;;;;;29.63;15.68;;;;;;;0.37;71.38;98970.34;5019026;28;20055;-75
2021/04/04 05:02:14;;;;;;;30.48;15.63;;;;;;;0.39;71.47;98966.41;5012163;28;20026;-75
2021/04/04 05:04:39;;;;;;;28.98;14.57;;;;;;;0.38;71.62;98969.28;5012194;28;20042;-75
2021/04/04 05:07:06;;;;;;;28.73;15.50;;;;;;;0.40;71.79;98969.91;5011735;28;20538;-75
2021/04/04 05:09:33;;;;;;;34.63;15.63;;;;;;;0.44;71.88;98971.13;5097228;28;20038;-75
2021/04/04 05:12:00;;;;;;;32.35;15.57;;;;;;;0.46;71.92;98977.13;5115629;28;20024;-75
2021/04/04 05:14:26;;;;;;;31.35;13.88;;;;;;;0.46;72.06;98979.00;5055860;28;20112;-75
2021/04/04 05:16:54;;;;;;;26.42;13.18;;;;;;;0.50;72.20;98986.44;5060893;28;20171;-75
2021/04/04 05:19:21;;;;;;;26.00;12.73;;;;;;;0.54;72.11;98984.97;5115564;28;20383;-75
2021/04/04 05:21:47;;;;;;;26.20;13.10;;;;;;;0.59;72.19;98995.09;5113109;28;20399;-75
2021/04/04 05:24:15;;;;;;;19.85;11.07;;;;;;;0.66;72.14;98986.97;5107562;28;20038;-75
2021/04/04 05:26:47;;;;;;;20.65;11.50;;;;;;;0.73;72.15;98993.16;5115379;28;20089;-75
2021/04/04 05:29:18;;;;;;;19.20;10.07;;;;;;;0.73;72.32;98993.16;5115409;28;20023;-75
2021/04/04 05:31:48;;;;;;;18.00;10.88;;;;;;;0.78;72.34;98993.31;5049751;28;20033;-75
2021/04/04 05:34:21;;;;;;;22.10;11.48;;;;;;;0.85;72.14;98998.66;5033006;28;20030;-75
2021/04/04 05:36:52;;;;;;;17.13;10.05;;;;;;;0.92;72.23;98993.22;5011857;28;20064;-75
2021/04/04 05:39:23;;;;;;;21.58;12.07;;;;;;;0.97;72.23;98993.41;5012144;28;20481;-75
2021/04/04 05:41:52;;;;;;;;;;;;;;;1.03;71.88;98987.94;5052712;28;20032;-75
2021/04/04 05:44:23;;;;;;;19.17;10.47;;;;;;;1.01;71.84;98998.13;5088918;28;20017;-75
2021/04/04 05:46:56;;;;;;;43.95;16.05;;;;;;;1.00;71.72;98995.66;5011647;28;20289;-75
2021/04/04 05:49:35;;;;;;;32.55;14.43;;;;;;;1.05;71.74;98987.69;4994142;28;20451;-75
2021/04/04 05:52:17;;;;;;;23.00;12.50;;;;;;;1.09;71.81;98997.00;5020302;28;20107;-75
2021/04/04 05:55:17;;;;;;;21.80;12.57;;;;;;;1.13;71.47;98995.53;5114823;28;20024;-75
2021/04/04 05:57:54;;;;;;;26.60;14.57;;;;;;;1.21;71.31;99001.72;5019220;28;20069;-75
2021/04/04 06:00:21;;;;;;;44.65;17.70;;;;;;;1.29;71.40;99004.13;5095521;28;20018;-75
2021/04/04 06:03:23;;;;;;;27.58;12.57;;;;;;;1.40;71.37;99005.28;5114687;28;20047;-75
2021/04/04 06:06:27;;;;;;;23.17;14.23;;;;;;;1.45;70.93;99008.13;5013028;28;20050;-75
2021/04/04 06:09:08;;;;;;;20.58;12.98;;;;;;;1.52;70.67;99006.19;5042917;28;20069;-75
2021/04/04 06:12:02;;;;;;;16.70;9.93;;;;;;;1.56;70.71;99010.13;5011363;28;20026;-75
2021/04/04 06:14:52;;;;;;;22.42;11.20;;;;;;;1.60;71.01;99015.88;5011345;28;20113;-75
2021/04/04 06:17:40;;;;;;;28.60;12.00;;;;;;;1.62;70.28;99013.78;5011430;28;20382;-74
2021/04/04 06:20:31;;;;;;;25.33;12.18;;;;;;;1.65;70.22;99010.63;5103425;28;20533;-74
2021/04/04 06:23:13;;;;;;;23.33;11.15;;;;;;;1.69;70.00;99008.31;5037902;28;20029;-74
2021/04/04 06:25:53;;;;;;;21.00;10.43;;;;;;;1.74;70.15;99016.56;4991370;28;20057;-74
2021/04/04 06:28:29;;;;;;;32.60;20.70;;;;;;;1.80;70.11;99020.28;4972950;28;20079;-74
2021/04/04 06:31:03;;;;;;;28.65;13.77;;;;;;;1.83;69.83;99014.41;4991290;28;20019;-74
2021/04/04 06:33:43;;;;;;;17.75;9.73;;;;;;;1.82;69.57;99007.34;4999098;28;20023;-74
2021/04/04 06:36:27;;;;;;;15.83;8.53;;;;;;;1.83;69.26;99009.00;5103454;28;20039;-74
2021/04/04 06:39:04;;;;;;;23.13;9.75;;;;;;;1.86;69.22;99011.22;5010780;28;20030;-74
2021/04/04 06:41:52;;;;;;;16.10;9.13;;;;;;;1.89;69.41;99013.50;5017499;28;20034;-74
2021/04/04 06:44:32;;;;;;;16.15;9.27;;;;;;;1.91;69.48;99009.53;5010866;28;20030;-76
2021/04/04 06:46:59;;;;;;;17.70;9.63;;;;;;;1.91;69.20;99006.81;5092977;28;20481;-75
2021/04/04 06:49:43;;;;;;;15.80;9.15;;;;;;;1.87;69.55;99016.44;5085288;28;20035;-75
2021/04/04 06:52:27;;;;;;;24.35;11.43;;;;;;;1.90;69.40;99009.72;5052938;28;20109;-75
2021/04/04 06:55:07;;;;;;;19.55;9.63;;;;;;;1.92;69.22;99016.59;5081669;28;20038;-75
2021/04/04 06:57:44;;;;;;;22.50;9.82;;;;;;;1.98;69.51;99019.44;5002721;28;20112;-75
2021/04/04 07:00:13;;;;;;;22.73;10.82;;;;;;;1.98;69.33;99014.84;5010733;28;20026;-75
2021/04/04 07:02:48;;;;;;;16.98;10.07;;;;;;;2.04;69.18;99015.81;5018229;28;20028;-75
2021/04/04 07:05:17;;;;;;;18.90;10.20;;;;;;;2.07;69.11;99016.19;5010388;28;20549;-75
2021/04/04 07:07:54;;;;;;;16.33;9.10;;;;;;;2.13;68.52;99013.66;5010325;28;20036;-75
2021/04/04 07:10:34;;;;;;;14.45;8.73;;;;;;;2.14;68.27;99010.69;5010536;28;20022;-75
2021/04/04 07:13:18;;;;;;;11.00;5.35;;;;;;;2.20;68.68;99017.09;5039506;28;20046;-74
2021/04/04 07:16:15;;;;;;;14.75;8.25;;;;;;;2.19;67.73;99016.25;5113372;28;20534;-75
2021/04/04 07:19:11;;;;;;;13.70;7.30;;;;;;;2.23;68.26;99028.28;5112719;28;20062;-75
2021/04/04 07:21:45;;;;;;;13.40;6.60;;;;;;;2.25;67.82;99019.91;5113334;28;20102;-75
2021/04/04 07:24:50;;;;;;;9.10;5.60;;;;;;;2.34;67.51;99029.38;5111371;28;20032;-75
2021/04/04 07:27:48;;;;;;;11.88;5.53;;;;;;;2.43;67.42;99021.81;5004255;28;20413;-76
2021/04/04 07:30:33;;;;;;;9.05;5.35;;;;;;;2.50;67.22;99029.81;5010305;28;20029;-76
2021/04/04 07:33:33;;;;;;;44.35;19.17;;;;;;;2.53;67.20;99037.50;5010265;28;20030;-76
2021/04/04 07:36:30;;;;;;;17.02;7.30;;;;;;;2.62;66.68;99038.00;4989290;28;20172;-76
2021/04/04 07:39:35;;;;;;;13.85;7.00;;;;;;;2.61;66.81;99036.34;5048776;28;20119;-76
2021/04/04 07:42:12;;;;;;;18.30;8.77;;;;;;;2.67;66.58;99038.13;4994252;28;20030;-76
2021/04/04 07:44:45;;;;;;;13.32;7.97;;;;;;;2.76;66.09;99038.63;5031651;28;20046;-76
2021/04/04 07:47:19;;;;;;;10.88;6.65;;;;;;;2.91;66.81;99032.78;5047965;28;20488;-76
2021/04/04 07:49:50;;;;;;;12.90;7.53;;;;;;;3.06;66.50;99032.31;5095437;28;20077;-74
2021/04/04 07:52:31;;;;;;;16.60;8.38;;;;;;;3.19;65.64;99032.13;5108717;28;20371;-77
2021/04/04 07:55:04;;;;;;;10.05;5.50;;;;;;;3.32;66.23;99024.84;5081211;28;20472;-76
2021/04/04 07:57:51;;;;;;;14.30;7.97;;;;;;;3.40;66.08;99033.44;5117171;28;20051;-76
2021/04/04 08:00:18;;;;;;;13.45;6.93;;;;;;;3.52;65.88;99028.00;5109741;28;20029;-76
2021/04/04 08:02:49;;;;;;;9.63;4.97;;;;;;;3.67;65.46;99027.53;5117178;28;20016;-77
2021/04/04 08:05:21;;;;;;;25.27;10.35;;;;;;;3.81;65.40;99027.28;5045349;28;20393;-77
2021/04/04 08:08:00;;;;;;;40.45;15.82;;;;;;;3.95;63.99;99026.00;5013034;28;20034;-77
2021/04/04 08:10:36;;;;;;;18.88;8.45;;;;;;;3.95;63.32;99028.69;5013162;28;20435;-76
2021/04/04 08:13:20;;;;;;;25.25;7.03;;;;;;;3.97;63.05;99032.00;5036300;28;20506;-76
2021/04/04 08:15:56;;;;;;;25.27;7.43;;;;;;;3.99;63.34;99039.91;5034610;28;20022;-74
2021/04/04 08:18:21;;;;;;;46.95;18.13;;;;;;;4.08;63.58;99030.31;4992370;28;20035;-76
2021/04/04 08:20:53;;;;;;;11.18;5.57;;;;;;;4.34;63.38;99030.03;5003845;28;20018;-75
2021/04/04 08:23:25;;;;;;;14.95;6.18;;;;;;;4.54;63.41;99035.84;5019638;28;20022;-76
2021/04/04 08:25:59;;;;;;;16.10;5.95;;;;;;;4.66;61.97;99038.53;5029416;28;20045;-74
2021/04/04 08:28:31;;;;;;;19.13;6.90;;;;;;;4.71;62.00;99030.44;5058242;27;20110;-74
2021/04/04 08:31:05;;;;;;;11.13;5.22;;;;;;;4.71;61.86;99035.06;5000141;28;20389;-74
2021/04/04 08:33:56;;;;;;;12.77;5.78;;;;;;;4.73;61.92;99031.03;5041289;28;20541;-74
2021/04/04 08:36:25;;;;;;;25.10;7.00;;;;;;;4.74;60.57;99031.88;5094256;28;20041;-75
2021/04/04 08:38:55;;;;;;;8.63;4.33;;;;;;;4.73;60.92;99025.59;5031830;28;20029;-74
2021/04/04 08:41:21;;;;;;;10.18;5.10;;;;;;;4.81;60.45;99023.56;5030141;28;20277;-74
2021/04/04 08:43:56;;;;;;;12.15;5.63;;;;;;;4.95;61.27;99024.91;5010325;28;20394;-75
2021/04/04 08:46:32;;;;;;;128.90;44.35;;;;;;;5.10;60.94;99029.78;5007174;28;20030;-75
2021/04/04 08:48:58;;;;;;;20.23;8.75;;;;;;;5.28;59.10;99034.16;4994377;28;20425;-76
2021/04/04 08:51:28;;;;;;;14.02;5.53;;;;;;;5.42;58.90;99021.03;5026707;28;20041;-75
2021/04/04 08:53:55;;;;;;;96.70;40.17;;;;;;;5.47;58.96;99025.75;4979352;28;20080;-75
2021/04/04 08:56:21;;;;;;;18.52;7.60;;;;;;;5.49;57.80;99020.88;4981499;28;20033;-76
2021/04/04 08:58:50;;;;;;;9.63;4.35;;;;;;;5.53;54.67;99013.03;4985145;28;20042;-75
2021/04/04 09:01:24;;;;;;;16.37;7.13;;;;;;;5.53;52.57;99015.75;4986665;28;20042;-77
2021/04/04 09:03:56;;;;;;;9.25;4.03;;;;;;;5.53;53.14;99015.75;4986563;28;20854;-76
2021/04/04 09:06:22;;;;;;;11.88;4.50;;;;;;;5.59;52.93;99012.84;4985497;28;20046;-74
2021/04/04 09:08:49;;;;;;;25.27;10.95;;;;;;;5.72;53.93;99011.66;4986364;28;20041;-76
2021/04/04 09:11:16;;;;;;;16.92;7.70;;;;;;;5.91;53.85;99001.31;4986664;28;20111;-75
2021/04/04 09:13:42;;;;;;;47.20;16.10;;;;;;;6.08;53.39;98995.03;4982689;28;20030;-76
2021/04/04 09:16:12;;;;;;;11.52;5.25;;;;;;;6.24;52.49;98998.75;4972301;28;20502;-75
2021/04/04 09:18:45;;;;;;;7.60;3.78;;;;;;;6.23;51.99;98995.22;4978210;28;20108;-75
2021/04/04 09:21:11;;;;;;;15.57;7.63;;;;;;;6.17;51.37;98996.25;4989369;28;20030;-76
2021/04/04 09:23:37;;;;;;;16.15;8.18;;;;;;;6.10;50.39;98995.59;4987428;28;20045;-76
2021/04/04 09:26:06;;;;;;;17.60;7.75;;;;;;;6.02;49.79;99004.22;4983811;28;20030;-76
2021/04/04 09:28:42;;;;;;;34.58;19.40;;;;;;;5.91;51.25;98998.59;4984681;28;20505;-77
2021/04/04 09:31:18;;;;;;;10.32;5.53;;;;;;;5.89;50.21;98998.06;4983534;28;20083;-76
2021/04/04 09:33:49;;;;;;;11.85;5.25;;;;;;;5.76;51.03;98996.50;4965276;28;20037;-76
2021/04/04 09:36:15;;;;;;;14.60;6.40;;;;;;;5.66;50.64;99002.63;4978665;28;20026;-76
2021/04/04 09:38:42;;;;;;;15.50;5.95;;;;;;;5.65;50.96;98998.25;4977831;28;20034;-77
2021/04/04 09:41:09;;;;;;;7.50;4.25;;;;;;;5.59;49.87;98993.00;4983433;28;20056;-77
2021/04/04 09:43:40;;;;;;;20.88;11.25;;;;;;;5.59;50.70;98993.00;4983200;28;20355;-76
2021/04/04 09:46:06;;;;;;;8.15;3.85;;;;;;;5.54;48.83;98999.16;4984353;28;20033;-75
2021/04/04 09:48:39;;;;;;;23.17;8.68;;;;;;;5.48;49.77;98995.56;4986462;28;20026;-76
2021/04/04 09:51:08;;;;;;;7.55;4.10;;;;;;;5.41;49.21;99002.25;4985139;28;20078;-76
2021/04/04 09:53:40;;;;;;;10.13;5.65;;;;;;;5.40;49.46;98997.88;4984161;28;20036;-76
2021/04/04 09:56:16;;;;;;;12.38;6.00;;;;;;;5.35;48.61;99002.19;4977272;28;20498;-76
2021/04/04 09:58:48;;;;;;;18.08;8.48;;;;;;;5.30;50.01;99009.44;4974734;28;20018;-77
2021/04/04 10:01:17;;;;;;;15.25;6.75;;;;;;;5.18;48.62;98998.63;4981663;28;20035;-77
2021/04/04 10:04:00;;;;;;;21.27;7.72;;;;;;;5.10;49.31;99001.75;4984650;28;20038;-76
2021/04/04 10:06:26;;;;;;;10.27;5.25;;;;;;;5.03;50.39;99004.63;4984324;28;20687;-76
2021/04/04 10:08:53;;;;;;;11.13;5.75;;;;;;;4.98;49.68;99002.69;4979323;28;20041;-76
2021/04/04 10:11:19;;;;;;;13.40;6.70;;;;;;;4.97;50.27;99003.75;4983750;28;20026;-75
2021/04/04 10:13:45;;;;;;;11.15;6.30;;;;;;;5.03;50.42;99001.94;4985574;28;20036;-76
2021/04/04 10:16:23;;;;;;;10.25;5.72;;;;;;;5.09;50.24;99005.56;4966399;28;20026;-76
2021/04/04 10:19:16;;;;;;;23.35;10.27;;;;;;;5.17;50.98;99003.25;4976468;28;20049;-76
2021/04/04 10:21:55;;;;;;;16.42;9.13;;;;;;;5.25;51.05;98993.03;4976420;28;20102;-77
2021/04/04 10:24:35;;;;;;;11.75;6.55;;;;;;;5.32;51.60;98997.22;4981721;28;20049;-77
2021/04/04 10:27:15;;;;;;;12.15;6.43;;;;;;;5.24;50.83;98988.69;4985500;28;20133;-77
2021/04/04 10:29:41;;;;;;;7.75;5.10;;;;;;;5.16;50.17;98998.06;4983707;28;20117;-77
2021/04/04 10:32:07;;;;;;;8.88;4.20;;;;;;;5.02;48.10;98995.69;4986298;28;20112;-77
2021/04/04 10:34:50;;;;;;;13.82;5.90;;;;;;;5.01;48.77;98998.63;4984810;28;20080;-78
2021/04/04 10:37:25;;;;;;;10.82;5.80;;;;;;;5.04;48.93;98996.25;4982052;28;20033;-78
2021/04/04 10:40:10;;;;;;;9.40;4.53;;;;;;;5.08;48.32;98996.56;4976266;28;20025;-78
2021/04/04 10:42:37;;;;;;;10.93;5.60;;;;;;;5.11;48.69;98987.09;4978200;28;20654;-76
2021/04/04 10:45:17;;;;;;;12.48;6.53;;;;;;;5.12;48.39;98981.41;4984838;28;20432;-78
2021/04/04 10:47:44;;;;;;;11.88;5.85;;;;;;;5.16;48.56;98979.00;4983420;28;20129;-78
2021/04/04 10:50:15;;;;;;;14.05;6.72;;;;;;;5.20;49.78;98974.72;4987712;28;20037;-76
2021/04/04 10:52:43;;;;;;;10.80;5.65;;;;;;;5.22;49.30;98972.59;4983794;28;20500;-76
2021/04/04 10:55:11;;;;;;;13.85;6.47;;;;;;;5.24;49.46;98972.34;4983461;28;20034;-76
2021/04/04 10:57:37;;;;;;;9.82;5.25;;;;;;;5.25;48.87;98974.00;4981216;28;20045;-75
2021/04/04 11:00:10;;;;;;;8.40;5.80;;;;;;;5.19;49.35;98959.50;4975882;28;20038;-75
2021/04/04 11:02:37;;;;;;;10.63;5.90;;;;;;;5.09;49.87;98959.34;4974575;28;20058;-76
2021/04/04 11:05:05;;;;;;;12.38;7.10;;;;;;;5.08;49.81;98961.22;4981743;28;20062;-76
2021/04/04 11:07:35;;;;;;;9.57;6.22;;;;;;;5.08;50.15;98953.06;4965864;28;20061;-77
2021/04/04 11:10:08;;;;;;;;;;;;;;;4.99;50.10;98960.81;4988634;28;20390;-77
2021/04/04 11:12:36;;;;;;;14.13;7.90;;;;;;;5.00;50.40;98961.63;4983667;28;19998;-77
2021/04/04 11:15:04;;;;;;;17.33;8.70;;;;;;;5.01;51.26;98964.13;4984559;28;20034;-77
2021/04/04 11:17:34;;;;;;;10.77;6.43;;;;;;;5.06;50.99;98958.78;4985117;28;20023;-76
2021/04/04 11:20:01;;;;;;;11.23;6.78;;;;;;;5.01;50.27;98952.41;4975788;28;20038;-75
2021/04/04 11:22:26;;;;;;;12.00;6.78;;;;;;;4.98;50.70;98964.63;4976636;28;20121;-76
2021/04/04 11:25:00;;;;;;;11.65;7.25;;;;;;;5.00;50.54;98958.91;4978340;28;20038;-76
2021/04/04 11:27:46;;;;;;;10.68;6.38;;;;;;;5.07;50.64;98956.88;4981012;28;20042;-76
2021/04/04 11:30:32;;;;;;;9.07;5.53;;;;;;;5.17;50.24;98948.88;4965992;28;20485;-76
2021/04/04 11:33:19;;;;;;;12.38;7.00;;;;;;;5.23;50.44;98936.16;4971591;28;20050;-76
2021/04/04 11:36:06;;;;;;;10.55;6.47;;;;;;;5.28;50.43;98941.69;4979506;28;20022;-75
2021/04/04 11:38:40;;;;;;;12.90;7.22;;;;;;;5.35;50.32;98931.47;4984586;28;20030;-75
2021/04/04 11:41:32;;;;;;;41.85;16.77;;;;;;;5.42;49.92;98935.91;4977133;28;20073;-75
2021/04/04 11:44:17;;;;;;;25.88;11.77;;;;;;;5.45;50.35;98928.06;4956505;28;20049;-77
2021/04/04 11:46:53;;;;;;;52.88;18.42;;;;;;;5.44;50.26;98931.03;4980939;28;20474;-78
2021/04/04 11:49:35;;;;;;;10.27;5.63;;;;;;;5.40;49.27;98927.16;4984997;28;20064;-76
2021/04/04 11:52:09;;;;;;;9.95;5.55;;;;;;;5.33;49.62;98925.44;4981973;28;20030;-75
2021/04/04 11:54:50;;;;;;;13.48;6.85;;;;;;;5.41;49.80;98918.75;4984304;28;20098;-75